createdAt,value
2019-03-25T00:00:12.793Z,70.30
2019-03-25T00:02:42.226Z,71.50
2019-03-25T00:05:12.082Z,70.90
2019-03-25T00:07:41.572Z,71.50
2019-03-25T00:10:11.191Z,72.00
2019-03-25T00:12:41.261Z,72.20
2019-03-25T00:15:10.860Z,73.30
2019-03-25T00:17:40.436Z,72.40
2019-03-25T00:20:10.112Z,72.70
2019-03-25T00:22:39.535Z,73.20
2019-03-25T00:25:09.413Z,72.80
2019-03-25T00:27:39.119Z,71.40
2019-03-25T00:30:08.989Z,70.70
2019-03-25T00:32:38.495Z,71.70
2019-03-25T00:35:08.480Z,71.30
2019-03-25T00:37:37.989Z,71.10
2019-03-25T00:40:08.071Z,70.80
2019-03-25T00:42:37.741Z,70.20
2019-03-25T00:45:07.903Z,70.10
2019-03-25T00:47:37.341Z,70.20
2019-03-25T00:50:07.973Z,69.80
2019-03-25T00:52:37.403Z,69.70
2019-03-25T00:55:07.280Z,69.70
2019-03-25T00:57:36.740Z,69.70
2019-03-25T01:00:09.875Z,69.20
2019-03-25T01:02:39.314Z,69.20
2019-03-25T01:05:09.423Z,68.90
2019-03-25T01:07:38.848Z,68.70
2019-03-25T01:10:08.992Z,68.40
2019-03-25T01:12:38.796Z,68.00
2019-03-25T01:15:09.043Z,67.80
2019-03-25T01:17:38.554Z,67.70
2019-03-25T01:20:09.207Z,67.60
2019-03-25T01:22:39.178Z,67.30
2019-03-25T01:25:08.814Z,67.00
2019-03-25T01:27:38.551Z,66.90
2019-03-25T01:30:09.792Z,66.90
2019-03-25T01:32:39.303Z,67.00
2019-03-25T01:35:09.015Z,67.20
2019-03-25T01:37:38.452Z,67.40
2019-03-25T01:40:08.195Z,67.00
2019-03-25T01:42:37.726Z,67.30
2019-03-25T01:45:07.680Z,66.90
2019-03-25T01:47:37.118Z,67.20
2019-03-25T01:50:07.977Z,67.50
2019-03-25T01:52:37.480Z,67.00
2019-03-25T01:55:13.467Z,67.30
2019-03-25T01:57:57.492Z,67.10
2019-03-25T02:00:26.925Z,67.40
2019-03-25T02:02:56.423Z,67.10
2019-03-25T02:05:26.451Z,67.30
2019-03-25T02:08:15.337Z,67.90
2019-03-25T02:10:44.817Z,67.60
2019-03-25T02:13:14.391Z,67.80
2019-03-25T02:15:44.289Z,67.90
2019-03-25T02:18:13.894Z,67.60
2019-03-25T02:20:43.400Z,67.20
2019-03-25T02:23:12.916Z,67.20
2019-03-25T02:25:42.816Z,67.30
2019-03-25T02:28:12.397Z,66.90
2019-03-25T02:30:41.826Z,66.60
2019-03-25T02:33:11.352Z,66.60
2019-03-25T02:35:40.839Z,66.30
2019-03-25T02:38:10.332Z,66.40
2019-03-25T02:40:39.935Z,66.20
2019-03-25T02:43:09.813Z,66.20
2019-03-25T02:45:39.307Z,65.90
2019-03-25T02:48:08.870Z,65.80
2019-03-25T02:50:38.731Z,65.40
2019-03-25T02:53:08.242Z,65.30
2019-03-25T02:55:41.999Z,66.30
2019-03-25T02:58:08.896Z,65.30
2019-03-25T03:00:40.376Z,65.10
2019-03-25T03:03:09.966Z,65.10
2019-03-25T03:05:39.394Z,65.20
2019-03-25T03:08:09.039Z,65.30
2019-03-25T03:10:38.576Z,65.40
2019-03-25T03:13:08.371Z,65.00
2019-03-25T03:15:37.939Z,65.00
2019-03-25T03:18:08.190Z,65.20
2019-03-25T03:20:37.774Z,65.30
2019-03-25T03:23:07.306Z,65.70
2019-03-25T03:25:39.550Z,66.20
2019-03-25T03:28:08.160Z,66.30
2019-03-25T03:30:37.599Z,66.80
2019-03-25T03:33:07.132Z,67.00
2019-03-25T03:35:36.629Z,67.00
2019-03-25T03:38:06.151Z,67.00
2019-03-25T03:40:35.699Z,66.90
2019-03-25T03:43:05.307Z,67.10
2019-03-25T03:45:34.929Z,67.10
2019-03-25T03:48:04.652Z,67.20
2019-03-25T03:50:34.508Z,67.20
2019-03-25T03:53:23.313Z,67.00
2019-03-25T03:55:53.587Z,67.00
2019-03-25T03:58:25.518Z,67.10
2019-03-25T04:00:55.368Z,66.70
2019-03-25T04:03:24.949Z,66.70
2019-03-25T04:05:54.739Z,66.70
2019-03-25T04:08:24.434Z,66.70
2019-03-25T04:10:53.996Z,66.80
2019-03-25T04:13:23.601Z,66.90
2019-03-25T04:15:53.074Z,66.80
2019-03-25T04:18:22.825Z,67.00
2019-03-25T04:20:52.519Z,67.10
2019-03-25T04:23:22.370Z,66.90
2019-03-25T04:25:52.145Z,66.50
2019-03-25T04:28:21.571Z,66.30
2019-03-25T04:30:51.307Z,66.40
2019-03-25T04:33:20.883Z,66.90
2019-03-25T04:35:50.313Z,66.90
2019-03-25T04:38:19.872Z,66.80
2019-03-25T04:40:49.441Z,66.80
2019-03-25T04:43:18.964Z,67.00
2019-03-25T04:45:48.800Z,66.90
2019-03-25T04:48:18.468Z,67.00
2019-03-25T04:50:47.904Z,67.20
2019-03-25T04:53:17.468Z,67.30
2019-03-25T04:55:46.899Z,67.80
2019-03-25T04:58:16.343Z,67.90
2019-03-25T05:00:46.140Z,67.40
2019-03-25T05:03:15.573Z,67.30
2019-03-25T05:05:45.443Z,67.40
2019-03-25T05:08:15.258Z,67.30
2019-03-25T05:10:44.696Z,67.00
2019-03-25T05:13:14.128Z,67.00
2019-03-25T05:15:43.820Z,67.10
2019-03-25T05:18:13.256Z,67.10
2019-03-25T05:20:42.983Z,67.10
2019-03-25T05:23:12.829Z,67.20
2019-03-25T05:25:42.320Z,67.70
2019-03-25T05:28:12.115Z,67.40
2019-03-25T05:30:41.924Z,67.40
2019-03-25T05:33:11.438Z,68.10
2019-03-25T05:35:40.997Z,67.90
2019-03-25T05:38:10.720Z,67.90
2019-03-25T05:40:40.170Z,68.20
2019-03-25T05:43:29.171Z,68.40
2019-03-25T05:45:58.671Z,67.90
2019-03-25T05:48:28.164Z,67.70
2019-03-25T05:50:57.923Z,67.60
2019-03-25T05:53:27.665Z,67.80
2019-03-25T05:55:57.443Z,67.50
2019-03-25T05:58:27.112Z,67.50
2019-03-25T06:00:56.693Z,68.00
2019-03-25T06:03:26.471Z,67.80
2019-03-25T06:05:56.108Z,66.00
2019-03-25T06:08:25.537Z,66.30
2019-03-25T06:10:54.959Z,65.80
2019-03-25T06:13:24.436Z,65.20
2019-03-25T06:15:53.924Z,66.00
2019-03-25T06:18:23.361Z,65.70
2019-03-25T06:20:53.315Z,65.30
2019-03-25T06:23:22.899Z,65.00
2019-03-25T06:25:52.624Z,64.20
2019-03-25T06:28:22.084Z,63.90
2019-03-25T06:30:51.658Z,63.70
2019-03-25T06:33:21.452Z,63.20
2019-03-25T06:35:51.370Z,63.20
2019-03-25T06:38:21.008Z,63.20
2019-03-25T06:40:50.540Z,63.20
2019-03-25T06:43:20.328Z,62.90
2019-03-25T06:45:49.776Z,62.70
2019-03-25T06:48:19.219Z,62.50
2019-03-25T06:50:48.846Z,63.00
2019-03-25T06:53:18.366Z,62.70
2019-03-25T06:55:53.829Z,62.50
2019-03-25T06:58:24.180Z,62.30
2019-03-25T07:00:53.704Z,62.10
2019-03-25T07:03:23.896Z,62.00
2019-03-25T07:05:53.712Z,62.10
2019-03-25T07:08:23.445Z,61.90
2019-03-25T07:10:52.984Z,62.00
2019-03-25T07:13:24.129Z,62.40
2019-03-25T07:15:53.842Z,63.10
2019-03-25T07:18:23.387Z,99.90
2019-03-25T07:20:52.802Z,99.90
2019-03-25T07:23:22.328Z,99.90
2019-03-25T07:25:51.911Z,99.90
2019-03-25T07:28:21.807Z,99.90
2019-03-25T07:30:51.377Z,99.90
2019-03-25T07:33:20.875Z,97.00
2019-03-25T07:35:50.295Z,96.40
2019-03-25T07:38:19.728Z,91.60
2019-03-25T07:40:49.534Z,86.10
2019-03-25T07:43:38.373Z,85.80
2019-03-25T07:46:07.961Z,84.60
2019-03-25T07:48:37.576Z,80.70
2019-03-25T07:51:07.085Z,80.20
2019-03-25T07:53:36.549Z,79.30
2019-03-25T07:56:06.201Z,78.80
2019-03-25T07:58:35.652Z,77.70
2019-03-25T08:01:05.378Z,77.70
2019-03-25T08:03:35.599Z,77.00
2019-03-25T08:06:05.453Z,76.90
2019-03-25T08:08:35.338Z,75.50
2019-03-25T08:11:05.836Z,74.50
2019-03-25T08:13:37.865Z,75.50
2019-03-25T08:16:07.650Z,76.20
2019-03-25T08:18:37.216Z,75.10
2019-03-25T08:21:06.660Z,74.60
2019-03-25T08:23:37.381Z,75.60
2019-03-25T08:26:07.004Z,74.50
2019-03-25T08:28:38.139Z,73.90
2019-03-25T08:31:09.213Z,72.70
2019-03-25T08:33:38.698Z,73.20
2019-03-25T08:36:08.373Z,71.80
2019-03-25T08:38:37.991Z,72.10
2019-03-25T08:41:08.091Z,71.80
2019-03-25T08:43:37.560Z,71.70
2019-03-25T08:46:07.472Z,71.80
2019-03-25T08:48:36.900Z,70.40
2019-03-25T08:51:06.331Z,70.20
2019-03-25T08:53:35.791Z,69.80
2019-03-25T08:56:05.363Z,70.40
2019-03-25T08:58:34.792Z,71.20
2019-03-25T09:01:05.232Z,70.30
2019-03-25T09:03:35.143Z,71.20
2019-03-25T09:06:04.813Z,70.50
2019-03-25T09:08:35.147Z,70.10
2019-03-25T09:11:06.946Z,69.00
2019-03-25T09:13:35.948Z,69.70
2019-03-25T09:16:05.574Z,69.00
2019-03-25T09:18:35.151Z,70.40
2019-03-25T09:21:04.863Z,76.40
2019-03-25T09:23:34.400Z,82.10
2019-03-25T09:26:04.243Z,82.00
2019-03-25T09:28:33.761Z,82.00
2019-03-25T09:31:06.845Z,82.10
2019-03-25T09:33:36.407Z,83.40
2019-03-25T09:36:06.203Z,84.80
2019-03-25T09:38:35.882Z,82.10
2019-03-25T09:41:05.789Z,82.30
2019-03-25T09:43:35.219Z,81.30
2019-03-25T09:46:05.219Z,80.70
2019-03-25T09:48:34.716Z,81.00
2019-03-25T09:51:04.553Z,79.30
2019-03-25T09:53:35.767Z,78.30
2019-03-25T09:56:05.445Z,78.40
2019-03-25T09:58:36.600Z,79.80
2019-03-25T10:01:06.503Z,78.90
2019-03-25T10:03:36.015Z,78.50
2019-03-25T10:06:05.864Z,77.10
2019-03-25T10:08:35.468Z,76.90
2019-03-25T10:11:05.352Z,75.90
2019-03-25T10:13:35.283Z,76.10
2019-03-25T10:16:24.236Z,76.20
2019-03-25T10:18:53.662Z,72.80
2019-03-25T10:21:23.102Z,72.90
2019-03-25T10:23:52.713Z,70.20
2019-03-25T10:26:22.233Z,67.00
2019-03-25T10:28:51.724Z,66.30
2019-03-25T10:31:21.411Z,61.30
2019-03-25T10:33:51.187Z,56.40
2019-03-25T10:36:20.991Z,57.90
2019-03-25T10:38:53.604Z,63.40
2019-03-25T10:41:23.095Z,55.50
2019-03-25T10:43:52.895Z,52.90
2019-03-25T10:46:22.491Z,53.20
2019-03-25T10:48:52.320Z,56.60
2019-03-25T10:51:22.116Z,56.90
2019-03-25T10:53:52.337Z,57.30
2019-03-25T10:56:21.952Z,58.90
2019-03-25T10:58:57.991Z,60.40
2019-03-25T11:01:23.020Z,62.10
2019-03-25T11:03:52.446Z,65.50
2019-03-25T11:06:22.029Z,67.90
2019-03-25T11:08:51.816Z,69.20
2019-03-25T11:11:21.627Z,71.00
2019-03-25T11:13:51.639Z,70.60
2019-03-25T11:16:21.315Z,70.70
2019-03-25T11:18:50.797Z,69.80
2019-03-25T11:21:20.234Z,70.20
2019-03-25T11:23:49.828Z,61.70
2019-03-25T11:26:19.928Z,60.10
2019-03-25T11:28:49.709Z,63.00
2019-03-25T11:31:19.253Z,57.40
2019-03-25T11:33:49.318Z,56.80
2019-03-25T11:36:19.236Z,52.20
2019-03-25T11:38:49.385Z,46.10
2019-03-25T11:41:18.896Z,46.40
2019-03-25T11:43:48.415Z,46.80
2019-03-25T11:46:18.375Z,48.20
2019-03-25T11:48:47.817Z,51.90
2019-03-25T11:51:17.327Z,54.10
2019-03-25T11:53:46.813Z,55.80
2019-03-25T11:56:16.252Z,53.60
2019-03-25T11:58:45.688Z,56.90
2019-03-25T12:01:16.308Z,61.10
2019-03-25T12:03:46.741Z,59.30
2019-03-25T12:06:23.771Z,49.70
2019-03-25T12:08:51.549Z,46.70
2019-03-25T12:11:21.068Z,44.70
2019-03-25T12:14:04.963Z,42.60
2019-03-25T12:16:35.502Z,39.30
2019-03-25T12:19:05.187Z,41.10
2019-03-25T12:21:40.252Z,41.50
2019-03-25T12:24:10.934Z,42.00
2019-03-25T12:26:40.587Z,42.40
2019-03-25T12:29:10.259Z,40.80
2019-03-25T12:31:39.806Z,41.40
2019-03-25T12:34:09.447Z,42.00
2019-03-25T12:36:39.052Z,42.40
2019-03-25T12:39:08.819Z,44.20
2019-03-25T12:41:38.417Z,42.60
2019-03-25T12:44:08.317Z,41.80
2019-03-25T12:46:37.892Z,45.30
2019-03-25T12:49:07.422Z,44.00
2019-03-25T12:51:37.002Z,44.70
2019-03-25T12:54:06.840Z,46.90
2019-03-25T12:56:36.552Z,50.20
2019-03-25T12:59:08.410Z,54.70
2019-03-25T13:01:38.216Z,74.60
2019-03-25T13:04:08.076Z,99.90
2019-03-25T13:06:37.608Z,99.90
2019-03-25T13:09:07.990Z,99.90
2019-03-25T13:11:37.477Z,99.90
2019-03-25T13:14:07.584Z,99.90
2019-03-25T13:16:56.340Z,92.80
2019-03-25T13:19:26.044Z,82.00
2019-03-25T13:21:55.476Z,69.40
2019-03-25T13:24:24.986Z,59.80
2019-03-25T13:26:54.757Z,51.50
2019-03-25T13:29:24.317Z,48.40
2019-03-25T13:31:54.208Z,48.70
2019-03-25T13:34:24.180Z,48.80
2019-03-25T13:36:53.838Z,50.20
2019-03-25T13:39:23.277Z,51.00
2019-03-25T13:41:52.815Z,49.00
2019-03-25T13:44:22.248Z,44.70
2019-03-25T13:46:51.679Z,44.10
2019-03-25T13:49:21.161Z,43.80
2019-03-25T13:51:50.716Z,47.20
2019-03-25T13:54:20.222Z,46.40
2019-03-25T13:56:49.752Z,46.50
2019-03-25T13:59:19.259Z,44.70
2019-03-25T14:01:48.699Z,41.70
2019-03-25T14:04:18.159Z,42.50
2019-03-25T14:06:47.688Z,46.50
2019-03-25T14:09:17.191Z,48.30
2019-03-25T14:11:46.661Z,50.10
2019-03-25T14:14:21.984Z,99.90
2019-03-25T14:16:51.512Z,99.90
2019-03-25T14:19:21.020Z,99.90
2019-03-25T14:21:50.506Z,99.80
2019-03-25T14:24:20.009Z,80.40
2019-03-25T14:26:49.491Z,75.60
2019-03-25T14:29:19.004Z,71.90
2019-03-25T14:31:48.543Z,70.10
2019-03-25T14:34:18.151Z,69.60
2019-03-25T14:36:47.992Z,70.00
2019-03-25T14:39:17.549Z,73.00
2019-03-25T14:41:47.301Z,73.30
2019-03-25T14:44:16.749Z,69.20
2019-03-25T14:46:46.283Z,59.50
2019-03-25T14:49:16.020Z,53.90
2019-03-25T14:51:45.523Z,51.00
2019-03-25T14:54:34.403Z,49.60
2019-03-25T14:57:04.197Z,49.90
2019-03-25T14:59:33.653Z,48.50
2019-03-25T15:02:03.467Z,46.80
2019-03-25T15:04:32.912Z,46.60
2019-03-25T15:07:22.076Z,45.80
2019-03-25T15:09:51.587Z,44.40
2019-03-25T15:12:21.191Z,45.40
2019-03-25T15:14:51.412Z,46.80
2019-03-25T15:17:20.851Z,49.00
2019-03-25T15:19:50.439Z,48.90
2019-03-25T15:22:19.979Z,45.70
2019-03-25T15:24:49.423Z,45.40
2019-03-25T15:27:23.429Z,45.40
2019-03-25T15:29:53.241Z,48.20
2019-03-25T15:32:22.832Z,51.00
2019-03-25T15:34:52.298Z,48.90
2019-03-25T15:37:22.007Z,46.90
2019-03-25T15:39:51.496Z,46.60
2019-03-25T15:42:21.118Z,48.10
2019-03-25T15:44:52.536Z,50.10
2019-03-25T15:47:22.380Z,51.30
2019-03-25T15:49:51.959Z,49.10
2019-03-25T15:52:21.768Z,48.60
2019-03-25T15:54:51.476Z,50.60
2019-03-25T15:57:20.930Z,52.40
2019-03-25T15:59:50.384Z,52.90
2019-03-25T16:02:20.809Z,53.60
2019-03-25T16:04:50.244Z,54.10
2019-03-25T16:07:19.728Z,55.40
2019-03-25T16:09:49.239Z,53.50
2019-03-25T16:12:18.743Z,50.00
2019-03-25T16:14:48.384Z,47.70
2019-03-25T16:17:18.141Z,48.90
2019-03-25T16:19:47.720Z,49.10
2019-03-25T16:22:17.721Z,47.00
2019-03-25T16:24:47.472Z,48.30
2019-03-25T16:27:17.126Z,48.90
2019-03-25T16:29:46.891Z,47.20
2019-03-25T16:32:16.398Z,47.70
2019-03-25T16:34:45.904Z,48.40
2019-03-25T16:37:15.676Z,49.20
2019-03-25T16:39:45.117Z,50.20
2019-03-25T16:42:14.632Z,51.00
2019-03-25T16:44:44.313Z,50.80
2019-03-25T16:47:14.239Z,49.50
2019-03-25T16:49:43.888Z,51.00
2019-03-25T16:52:13.680Z,52.70
2019-03-25T16:54:43.184Z,53.70
2019-03-25T16:57:12.772Z,54.50
2019-03-25T16:59:42.333Z,54.40
2019-03-25T17:02:12.300Z,54.40
2019-03-25T17:04:41.735Z,54.20
2019-03-25T17:07:17.222Z,54.70
2019-03-25T17:09:46.667Z,55.00
2019-03-25T17:12:16.390Z,56.10
2019-03-25T17:14:46.120Z,55.80
2019-03-25T17:17:15.909Z,56.00
2019-03-25T17:19:45.409Z,56.20
2019-03-25T17:22:14.880Z,56.70
2019-03-25T17:24:44.447Z,57.40
2019-03-25T17:27:14.022Z,57.70
2019-03-25T17:29:43.811Z,57.60
2019-03-25T17:32:13.242Z,57.70
2019-03-25T17:34:42.672Z,57.60
2019-03-25T17:37:12.642Z,57.50
2019-03-25T17:39:42.354Z,57.40
2019-03-25T17:42:11.875Z,57.60
2019-03-25T17:44:41.432Z,57.70
2019-03-25T17:47:10.856Z,57.70
2019-03-25T17:49:40.288Z,57.90
2019-03-25T17:52:10.067Z,58.50
2019-03-25T17:54:39.652Z,58.30
2019-03-25T17:57:09.601Z,58.00
2019-03-25T17:59:39.199Z,58.20
2019-03-25T18:02:08.701Z,58.40
2019-03-25T18:04:38.411Z,58.80
2019-03-25T18:07:08.323Z,58.90
2019-03-25T18:09:37.760Z,59.80
2019-03-25T18:12:07.256Z,59.80
2019-03-25T18:14:36.716Z,60.90
2019-03-25T18:17:06.297Z,61.70
2019-03-25T18:19:35.719Z,61.80
2019-03-25T18:22:24.579Z,62.80
2019-03-25T18:24:54.313Z,63.30
2019-03-25T18:27:24.228Z,64.40
2019-03-25T18:29:53.833Z,65.50
2019-03-25T18:32:23.268Z,66.10
2019-03-25T18:34:52.759Z,67.80
2019-03-25T18:37:22.215Z,67.30
2019-03-25T18:39:51.643Z,67.90
2019-03-25T18:42:21.144Z,68.60
2019-03-25T18:44:50.676Z,69.80
2019-03-25T18:47:20.256Z,70.10
2019-03-25T18:49:58.491Z,71.50
2019-03-25T18:52:28.059Z,73.40
2019-03-25T18:54:57.888Z,75.60
2019-03-25T18:57:27.715Z,77.10
2019-03-25T18:59:57.216Z,78.70
2019-03-25T19:02:26.915Z,80.30
2019-03-25T19:04:56.545Z,81.90
2019-03-25T19:07:26.270Z,85.10
2019-03-25T19:09:55.776Z,86.00
2019-03-25T19:12:25.335Z,85.50
2019-03-25T19:14:55.001Z,85.20
2019-03-25T19:17:24.491Z,86.40
2019-03-25T19:19:53.970Z,86.40
2019-03-25T19:22:23.477Z,86.10
2019-03-25T19:24:52.969Z,85.70
2019-03-25T19:27:23.076Z,85.30
2019-03-25T19:29:52.909Z,84.90
2019-03-25T19:32:22.725Z,87.10
2019-03-25T19:34:52.756Z,89.60
2019-03-25T19:37:22.319Z,90.50
2019-03-25T19:39:51.893Z,91.70
2019-03-25T19:42:35.040Z,92.20
2019-03-25T19:45:06.922Z,94.10
2019-03-25T19:47:36.601Z,95.30
2019-03-25T19:50:09.811Z,96.10
2019-03-25T19:52:39.325Z,96.50
2019-03-25T19:55:08.970Z,95.90
2019-03-25T19:57:38.678Z,96.70
2019-03-25T20:00:10.347Z,98.60
2019-03-25T20:02:39.972Z,98.00
2019-03-25T20:05:09.714Z,99.90
2019-03-25T20:07:39.278Z,99.90
2019-03-25T20:10:11.825Z,99.90
2019-03-25T20:12:41.600Z,99.90
2019-03-25T20:15:11.970Z,99.90
2019-03-25T20:17:41.564Z,99.90
2019-03-25T20:20:11.267Z,99.90
2019-03-25T20:22:40.700Z,99.90
2019-03-25T20:25:12.045Z,99.90
2019-03-25T20:27:41.517Z,99.90
2019-03-25T20:30:12.075Z,99.90
2019-03-25T20:32:44.231Z,99.90
2019-03-25T20:35:14.078Z,99.90
2019-03-25T20:37:43.586Z,99.50
2019-03-25T20:40:13.451Z,99.90
2019-03-25T20:42:43.063Z,99.20
2019-03-25T20:45:13.332Z,99.20
2019-03-25T20:47:42.819Z,99.90
2019-03-25T20:50:12.452Z,98.20
2019-03-25T20:52:41.888Z,97.40
2019-03-25T20:55:11.640Z,97.50
2019-03-25T20:57:41.661Z,96.50
2019-03-25T21:00:12.213Z,96.10
2019-03-25T21:02:45.430Z,94.90
2019-03-25T21:05:14.270Z,95.00
2019-03-25T21:07:43.923Z,94.70
2019-03-25T21:10:14.175Z,94.60
2019-03-25T21:12:43.598Z,94.10
2019-03-25T21:15:13.139Z,94.80
2019-03-25T21:17:42.691Z,94.70
2019-03-25T21:20:12.635Z,95.10
2019-03-25T21:22:42.199Z,97.00
2019-03-25T21:25:12.153Z,99.00
2019-03-25T21:27:41.955Z,99.90
2019-03-25T21:30:12.025Z,99.90
2019-03-25T21:32:41.640Z,99.90
2019-03-25T21:35:11.240Z,99.90
2019-03-25T21:37:40.708Z,99.90
2019-03-25T21:40:11.164Z,99.90
2019-03-25T21:42:40.769Z,99.90
2019-03-25T21:45:10.786Z,99.90
2019-03-25T21:47:59.990Z,99.10
2019-03-25T21:50:29.628Z,98.20
2019-03-25T21:52:59.265Z,99.10
2019-03-25T21:55:28.839Z,98.90
2019-03-25T21:58:00.315Z,99.10
2019-03-25T22:00:29.859Z,99.10
2019-03-25T22:03:11.423Z,99.90
2019-03-25T22:05:30.605Z,99.90
2019-03-25T22:08:00.042Z,99.90
2019-03-25T22:10:29.571Z,99.90
2019-03-25T22:12:59.096Z,99.90
2019-03-25T22:15:28.599Z,99.90
2019-03-25T22:17:58.373Z,99.80
2019-03-25T22:20:28.228Z,99.40
2019-03-25T22:22:57.668Z,98.80
2019-03-25T22:25:27.544Z,98.50
2019-03-25T22:27:56.972Z,98.20
2019-03-25T22:30:26.447Z,99.40
2019-03-25T22:32:55.957Z,98.80
2019-03-25T22:35:25.465Z,98.30
2019-03-25T22:37:54.973Z,98.30
2019-03-25T22:40:24.725Z,98.40
2019-03-25T22:42:54.684Z,99.40
2019-03-25T22:45:28.904Z,99.90
2019-03-25T22:47:58.739Z,99.90
2019-03-25T22:50:30.183Z,99.90
2019-03-25T22:52:59.751Z,99.90
2019-03-25T22:55:32.266Z,99.90
2019-03-25T22:58:01.776Z,99.90
2019-03-25T23:00:45.383Z,99.90
2019-03-25T23:03:15.256Z,99.90
2019-03-25T23:05:44.972Z,99.90
2019-03-25T23:08:14.600Z,99.90
2019-03-25T23:10:44.176Z,99.90
2019-03-25T23:13:13.680Z,99.90
2019-03-25T23:15:43.531Z,99.90
2019-03-25T23:18:13.067Z,99.90
2019-03-25T23:20:42.567Z,99.90
2019-03-25T23:23:12.116Z,99.90
2019-03-25T23:25:41.558Z,99.90
2019-03-25T23:28:11.574Z,99.90
2019-03-25T23:30:41.032Z,99.90
2019-03-25T23:33:10.612Z,99.90
2019-03-25T23:35:40.039Z,99.90
2019-03-25T23:38:09.648Z,99.90
2019-03-25T23:40:39.709Z,99.90
2019-03-25T23:43:09.213Z,99.90
2019-03-25T23:45:38.823Z,99.90
2019-03-25T23:48:08.672Z,99.90
2019-03-25T23:50:38.171Z,99.90
2019-03-25T23:53:07.623Z,99.90
2019-03-25T23:55:37.063Z,98.60
2019-03-25T23:58:06.852Z,98.90
